createdAt,value
2023-03-10T00:00:34.567Z,98771.52
2023-03-10T00:02:39.736Z,98769.49
2023-03-10T00:04:45.131Z,98775.63
2023-03-10T00:06:50.763Z,98768.64
2023-03-10T00:08:55.805Z,98766.05
2023-03-10T00:11:01.180Z,98758.63
2023-03-10T00:13:06.425Z,98752.84
2023-03-10T00:15:12.031Z,98755.58
2023-03-10T00:17:17.303Z,98753.91
2023-03-10T00:19:22.742Z,98767.78
2023-03-10T00:21:28.156Z,98757.72
2023-03-10T00:23:35.717Z,98759.26
2023-03-10T00:25:42.347Z,98745.18
2023-03-10T00:27:47.870Z,98741.69
2023-03-10T00:29:53.287Z,98744.92
2023-03-10T00:31:58.381Z,98740.98
2023-03-10T00:34:03.824Z,98735.42
2023-03-10T00:36:09.325Z,98740.02
2023-03-10T00:38:14.845Z,98740.94
2023-03-10T00:40:20.071Z,98740.94
2023-03-10T00:42:25.375Z,98739.48
2023-03-10T00:44:30.729Z,98731.36
2023-03-10T00:46:36.347Z,98732.34
2023-03-10T00:48:42.465Z,98733.72
2023-03-10T00:50:47.627Z,98735.42
2023-03-10T00:52:53.161Z,98727.55
2023-03-10T00:54:58.329Z,98725.89
2023-03-10T00:57:04.432Z,98721.66
2023-03-10T00:59:12.642Z,98724.14
2023-03-10T01:01:17.904Z,98723.48
2023-03-10T01:03:23.330Z,98717.3
2023-03-10T01:05:28.691Z,98712.32
2023-03-10T01:07:34.256Z,98706.6
2023-03-10T01:09:39.783Z,98704.78
2023-03-10T01:11:45.046Z,98701.89
2023-03-10T01:13:50.464Z,98700.97
2023-03-10T01:15:55.759Z,98693.26
2023-03-10T01:18:01.312Z,98694.72
2023-03-10T01:20:06.557Z,98689.2
2023-03-10T01:22:11.967Z,98687.45
2023-03-10T01:24:17.317Z,98686.19
2023-03-10T01:26:22.600Z,98683.92
2023-03-10T01:28:27.955Z,98678.64
2023-03-10T01:30:33.421Z,98683.42
2023-03-10T01:32:39.200Z,98678.84
2023-03-10T01:34:44.778Z,98682.12
2023-03-10T01:36:50.127Z,98675.27
2023-03-10T01:38:55.740Z,98668.39
2023-03-10T01:41:01.331Z,98663.16
2023-03-10T01:43:06.750Z,98662.91
2023-03-10T01:45:11.944Z,98663.59
2023-03-10T01:47:20.842Z,98661.69
2023-03-10T01:49:26.358Z,98659.2
2023-03-10T01:51:31.672Z,98657.95
2023-03-10T01:53:37.052Z,98654.66
2023-03-10T01:55:42.339Z,98642.66
2023-03-10T01:57:47.703Z,98641.61
2023-03-10T01:59:53.102Z,98640.3
2023-03-10T02:01:58.763Z,98630.34
2023-03-10T02:04:04.188Z,98632
2023-03-10T02:06:09.649Z,98631.52
2023-03-10T02:08:15.020Z,98628.07
2023-03-10T02:10:20.448Z,98623.6
2023-03-10T02:12:26.097Z,98619.11
2023-03-10T02:14:31.615Z,98608.09
2023-03-10T02:16:37.069Z,98609.58
2023-03-10T02:18:42.675Z,98607.77
2023-03-10T02:20:48.709Z,98601.37
2023-03-10T02:22:53.898Z,98596.39
2023-03-10T02:24:59.670Z,98592.58
2023-03-10T02:27:05.317Z,98584.61
2023-03-10T02:29:10.644Z,98580.09
2023-03-10T02:31:19.153Z,98577.5
2023-03-10T02:33:24.303Z,98576.6
2023-03-10T02:35:29.841Z,98569
2023-03-10T02:37:35.355Z,98563.77
2023-03-10T02:39:40.637Z,98558.05
2023-03-10T02:41:47.012Z,98553.38
2023-03-10T02:43:52.329Z,98547.3
2023-03-10T02:45:57.916Z,98543.36
2023-03-10T02:48:03.347Z,98541.43
2023-03-10T02:50:08.969Z,98536.18
2023-03-10T02:52:14.788Z,98538.38
2023-03-10T02:54:20.358Z,98520.55
2023-03-10T02:56:25.916Z,98509.18
2023-03-10T02:58:31.279Z,98504.84
2023-03-10T03:00:37.066Z,98507.82
2023-03-10T03:02:42.596Z,98513.64
2023-03-10T03:04:48.152Z,98510.34
2023-03-10T03:06:53.589Z,98509.66
2023-03-10T03:08:59.060Z,98507.55
2023-03-10T03:11:04.327Z,98510.9
2023-03-10T03:13:10.442Z,98505.05
2023-03-10T03:15:18.895Z,98503.88
2023-03-10T03:17:25.022Z,98499.89
2023-03-10T03:19:31.341Z,98501.35
2023-03-10T03:21:36.839Z,98495.63
2023-03-10T03:23:42.124Z,98492.91
2023-03-10T03:25:47.437Z,98488.63
2023-03-10T03:27:52.877Z,98487.71
2023-03-10T03:29:58.378Z,98477.81
2023-03-10T03:32:03.821Z,98482.98
2023-03-10T03:34:09.811Z,98482.52
2023-03-10T03:36:15.116Z,98479.05
2023-03-10T03:38:20.437Z,98472.58
2023-03-10T03:40:25.755Z,98469.03
2023-03-10T03:42:31.409Z,98463.63
2023-03-10T03:44:37.084Z,98451.27
2023-03-10T03:46:42.312Z,98447.09
2023-03-10T03:48:47.791Z,98438.53
2023-03-10T03:50:53.473Z,98433.17
2023-03-10T03:52:58.888Z,98416.84
2023-03-10T03:55:04.125Z,98416.58
2023-03-10T03:57:09.699Z,98415.54
2023-03-10T03:59:18.086Z,98418.61
2023-03-10T04:01:23.318Z,98418.84
2023-03-10T04:03:29.126Z,98419.83
2023-03-10T04:05:34.375Z,98417.21
2023-03-10T04:07:39.622Z,98418.28
2023-03-10T04:09:45.356Z,98426.61
2023-03-10T04:11:50.732Z,98431.13
2023-03-10T04:13:56.089Z,98418.19
2023-03-10T04:16:01.609Z,98415.34
2023-03-10T04:18:07.244Z,98406.14
2023-03-10T04:20:12.646Z,98407.17
2023-03-10T04:22:17.873Z,98404.17
2023-03-10T04:24:23.057Z,98397.48
2023-03-10T04:26:28.186Z,98388.52
2023-03-10T04:28:33.542Z,98388.78
2023-03-10T04:30:38.865Z,98383.5
2023-03-10T04:32:44.133Z,98382.11
2023-03-10T04:34:53.467Z,98377.05
2023-03-10T04:36:58.704Z,98375.09
2023-03-10T04:39:04.211Z,98376.58
2023-03-10T04:41:09.580Z,98380.67
2023-03-10T04:43:14.967Z,98376.05
2023-03-10T04:45:20.209Z,98367.5
2023-03-10T04:47:25.763Z,98354.48
2023-03-10T04:49:31.224Z,98349.55
2023-03-10T04:51:36.979Z,98352.5
2023-03-10T04:53:42.254Z,98361.27
2023-03-10T04:55:47.641Z,98362.84
2023-03-10T04:57:53.372Z,98354.22
2023-03-10T05:00:00.971Z,98341.52
2023-03-10T05:02:08.055Z,98333.38
2023-03-10T05:04:13.394Z,98332.16
2023-03-10T05:06:18.823Z,98340.94
2023-03-10T05:08:24.484Z,98331.6
2023-03-10T05:10:29.983Z,98337.05
2023-03-10T05:12:35.402Z,98326.91
2023-03-10T05:14:40.589Z,98320.02
2023-03-10T05:16:45.984Z,98317.48
2023-03-10T05:18:51.322Z,98308.16
2023-03-10T05:20:57.047Z,98304.56
2023-03-10T05:23:02.108Z,98303.2
2023-03-10T05:25:07.786Z,98304.8
2023-03-10T05:27:13.004Z,98293.08
2023-03-10T05:29:18.374Z,98286.55
2023-03-10T05:31:23.691Z,98271.27
2023-03-10T05:33:32.592Z,98263.24
2023-03-10T05:35:38.139Z,98263.36
2023-03-10T05:37:43.671Z,98277.69
2023-03-10T05:39:48.899Z,98266.3
2023-03-10T05:41:54.088Z,98272.64
2023-03-10T05:43:59.482Z,98272.3
2023-03-10T05:46:04.710Z,98277.14
2023-03-10T05:48:09.865Z,98277.28
2023-03-10T05:50:15.110Z,98275.99
2023-03-10T05:52:20.721Z,98271.52
2023-03-10T05:54:26.053Z,98275.54
2023-03-10T05:56:31.563Z,98275.59
2023-03-10T05:58:37.316Z,98274.55
2023-03-10T06:00:42.746Z,98272.41
2023-03-10T06:02:48.140Z,98276.8
2023-03-10T06:04:54.219Z,98275.27
2023-03-10T06:07:00.509Z,98277.5
2023-03-10T06:09:05.709Z,98277.8
2023-03-10T06:11:13.070Z,98269.81
2023-03-10T06:13:19.411Z,98264.78
2023-03-10T06:15:25.445Z,98256.63
2023-03-10T06:17:31.465Z,98248.71
2023-03-10T06:19:37.356Z,98244.93
2023-03-10T06:21:43.303Z,98245.11
2023-03-10T06:23:49.006Z,98244.68
2023-03-10T06:25:54.732Z,98237.68
2023-03-10T06:28:01.088Z,98229.07
2023-03-10T06:30:07.100Z,98233.95
2023-03-10T06:32:14.135Z,98239.91
2023-03-10T06:34:19.712Z,98237.71
2023-03-10T06:36:25.859Z,98234.36
2023-03-10T06:38:31.819Z,98232.25
2023-03-10T06:40:37.682Z,98238.14
2023-03-10T06:42:43.515Z,98236.27
2023-03-10T06:44:50.818Z,98230.98
2023-03-10T06:46:56.838Z,98226.08
2023-03-10T06:49:02.896Z,98220.53
2023-03-10T06:51:08.911Z,98219.14
2023-03-10T06:53:15.945Z,98212
2023-03-10T06:55:21.448Z,98210.36
2023-03-10T06:57:28.496Z,98211.59
2023-03-10T06:59:34.188Z,98213.22
2023-03-10T07:01:40.571Z,98216.92
2023-03-10T07:03:46.388Z,98222.47
2023-03-10T07:05:52.284Z,98210.7
2023-03-10T07:07:58.386Z,98205.14
2023-03-10T07:10:05.744Z,98196.65
2023-03-10T07:12:12.762Z,98205.7
2023-03-10T07:14:17.922Z,98192.19
2023-03-10T07:16:23.597Z,98187.17
2023-03-10T07:18:29.336Z,98178.48
2023-03-10T07:20:34.859Z,98176.78
2023-03-10T07:22:40.554Z,98175.3
2023-03-10T07:24:46.859Z,98177.08
2023-03-10T07:26:52.980Z,98181.56
2023-03-10T07:28:58.892Z,98186.98
2023-03-10T07:31:04.374Z,98178.42
2023-03-10T07:33:09.830Z,98172.06
2023-03-10T07:35:15.618Z,98160.17
2023-03-10T07:37:21.075Z,98166.09
2023-03-10T07:39:27.261Z,98165.75
2023-03-10T07:41:33.897Z,98167.27
2023-03-10T07:43:40.284Z,98168.7
2023-03-10T07:45:46.790Z,98163.23
2023-03-10T07:47:52.630Z,98160.89
2023-03-10T07:49:58.028Z,98155.14
2023-03-10T07:52:03.425Z,98156.03
2023-03-10T07:54:08.850Z,98152.41
2023-03-10T07:56:14.138Z,98149.97
2023-03-10T07:58:19.535Z,98149.67
2023-03-10T08:00:24.648Z,98150.16
2023-03-10T08:02:29.824Z,98155.17
2023-03-10T08:04:36.119Z,98154.42
2023-03-10T08:06:44.128Z,98154.08
2023-03-10T08:08:49.776Z,98148.16
2023-03-10T08:10:55.622Z,98143.64
2023-03-10T08:13:01.851Z,98132.46
2023-03-10T08:15:08.029Z,98133.12
2023-03-10T08:17:14.169Z,98131.95
2023-03-10T08:19:20.342Z,98128.25
2023-03-10T08:21:27.406Z,98121.7
2023-03-10T08:23:33.301Z,98117.64
2023-03-10T08:25:40.730Z,98122.7
2023-03-10T08:27:47.432Z,98131.63
2023-03-10T08:29:54.556Z,98123.28
2023-03-10T08:32:01.427Z,98115.13
2023-03-10T08:34:07.856Z,98107.95
2023-03-10T08:36:14.643Z,98102.8
2023-03-10T08:38:20.823Z,98107.15
2023-03-10T08:40:26.840Z,98104.48
2023-03-10T08:42:32.508Z,98103.77
2023-03-10T08:44:38.633Z,98106.42
2023-03-10T08:46:47.600Z,98104.78
2023-03-10T08:48:53.195Z,98100.03
2023-03-10T08:51:00.372Z,98095.66
2023-03-10T08:53:07.637Z,98097.13
2023-03-10T08:55:15.055Z,98103.38
2023-03-10T08:57:20.715Z,98093.81
2023-03-10T08:59:27.844Z,98090.56
2023-03-10T09:01:34.554Z,98086.52
2023-03-10T09:03:40.947Z,98087.3
2023-03-10T09:05:47.326Z,98089.63
